Terminal Aerodrome Forecast
Issued by NWS

Home | Current Version | Previous Version | Text Only | Print | Product List | Glossary On
Versions: 1 2 3 4 5 6 7 8 9 10 11 12 13 14 15 16 17 18
000
FTUS43 KMQT 031919 AAB
TAFIWD
TAF AMD
KIWD 031919Z 0319/0418 26010KT 2SM -SN OVC015
     FM032000 27012G22KT 4SM -SHSN BKN020
     FM032300 29015G25KT 3SM -SHSN BLSN BKN025
      AMD LTD TO CLD VIS AND WIND=

USA.gov is the U.S. government's official web portal to all federal, state and local government web resources and services.